sensor_id;sensor_type;location;lat;lon;timestamp;P1;durP1;ratioP1;P2;durP2;ratioP2
75320;SDS011;68337;52.196;5.660;2023-06-14T00:00:20;7.93;;;2.80;;
75320;SDS011;68337;52.196;5.660;2023-06-14T00:02:47;5.13;;;2.70;;
75320;SDS011;68337;52.196;5.660;2023-06-14T00:05:13;4.90;;;2.97;;
75320;SDS011;68337;52.196;5.660;2023-06-14T00:07:40;3.70;;;2.60;;
75320;SDS011;68337;52.196;5.660;2023-06-14T00:10:10;5.38;;;2.63;;
75320;SDS011;68337;52.196;5.660;2023-06-14T00:12:36;5.60;;;2.88;;
75320;SDS011;68337;52.196;5.660;2023-06-14T00:15:04;7.88;;;3.22;;
75320;SDS011;68337;52.196;5.660;2023-06-14T00:17:30;4.18;;;2.60;;
75320;SDS011;68337;52.196;5.660;2023-06-14T00:19:59;2.85;;;2.65;;
75320;SDS011;68337;52.196;5.660;2023-06-14T00:22:25;7.90;;;2.78;;
75320;SDS011;68337;52.196;5.660;2023-06-14T00:24:53;4.22;;;2.45;;
75320;SDS011;68337;52.196;5.660;2023-06-14T00:27:19;5.47;;;2.30;;
75320;SDS011;68337;52.196;5.660;2023-06-14T00:29:45;6.93;;;2.85;;
75320;SDS011;68337;52.196;5.660;2023-06-14T00:32:11;5.65;;;2.85;;
75320;SDS011;68337;52.196;5.660;2023-06-14T00:34:37;4.38;;;2.58;;
75320;SDS011;68337;52.196;5.660;2023-06-14T00:37:02;13.77;;;2.85;;
75320;SDS011;68337;52.196;5.660;2023-06-14T00:39:28;4.15;;;2.65;;
75320;SDS011;68337;52.196;5.660;2023-06-14T00:41:54;3.92;;;2.55;;
75320;SDS011;68337;52.196;5.660;2023-06-14T00:44:20;3.95;;;2.28;;
75320;SDS011;68337;52.196;5.660;2023-06-14T00:46:46;6.80;;;2.63;;
75320;SDS011;68337;52.196;5.660;2023-06-14T00:49:15;11.15;;;2.92;;
75320;SDS011;68337;52.196;5.660;2023-06-14T00:51:42;5.40;;;2.13;;
75320;SDS011;68337;52.196;5.660;2023-06-14T00:54:08;5.03;;;2.67;;
75320;SDS011;68337;52.196;5.660;2023-06-14T00:56:35;4.45;;;2.60;;
75320;SDS011;68337;52.196;5.660;2023-06-14T00:59:02;5.00;;;2.70;;
75320;SDS011;68337;52.196;5.660;2023-06-14T01:01:29;7.78;;;2.67;;
75320;SDS011;68337;52.196;5.660;2023-06-14T01:03:58;6.53;;;2.47;;
75320;SDS011;68337;52.196;5.660;2023-06-14T01:12:04;3.40;;;2.30;;
75320;SDS011;68337;52.196;5.660;2023-06-14T01:14:38;3.35;;;2.42;;
75320;SDS011;68337;52.196;5.660;2023-06-14T01:17:04;4.68;;;2.47;;
75320;SDS011;68337;52.196;5.660;2023-06-14T01:19:32;3.50;;;2.20;;
75320;SDS011;68337;52.196;5.660;2023-06-14T01:22:00;8.00;;;2.65;;
75320;SDS011;68337;52.196;5.660;2023-06-14T01:24:27;4.53;;;2.50;;
75320;SDS011;68337;52.196;5.660;2023-06-14T01:26:57;5.22;;;2.47;;
75320;SDS011;68337;52.196;5.660;2023-06-14T01:29:24;6.57;;;2.85;;
75320;SDS011;68337;52.196;5.660;2023-06-14T01:31:53;6.97;;;2.60;;
75320;SDS011;68337;52.196;5.660;2023-06-14T01:34:19;8.45;;;2.58;;
75320;SDS011;68337;52.196;5.660;2023-06-14T01:36:45;7.57;;;2.33;;
75320;SDS011;68337;52.196;5.660;2023-06-14T01:39:13;2.85;;;2.40;;
75320;SDS011;68337;52.196;5.660;2023-06-14T01:41:40;3.10;;;2.60;;
75320;SDS011;68337;52.196;5.660;2023-06-14T01:44:07;5.65;;;2.60;;
75320;SDS011;68337;52.196;5.660;2023-06-14T01:46:33;8.63;;;2.85;;
75320;SDS011;68337;52.196;5.660;2023-06-14T01:49:00;8.60;;;2.90;;
75320;SDS011;68337;52.196;5.660;2023-06-14T01:51:27;4.70;;;2.40;;
75320;SDS011;68337;52.196;5.660;2023-06-14T01:53:53;3.72;;;2.08;;
75320;SDS011;68337;52.196;5.660;2023-06-14T01:56:18;4.93;;;2.40;;
75320;SDS011;68337;52.196;5.660;2023-06-14T01:58:45;4.72;;;2.30;;
75320;SDS011;68337;52.196;5.660;2023-06-14T02:01:10;8.15;;;2.35;;
75320;SDS011;68337;52.196;5.660;2023-06-14T02:03:37;6.90;;;2.40;;
75320;SDS011;68337;52.196;5.660;2023-06-14T02:06:03;9.15;;;2.50;;
75320;SDS011;68337;52.196;5.660;2023-06-14T02:08:29;7.53;;;2.40;;
75320;SDS011;68337;52.196;5.660;2023-06-14T02:10:55;8.73;;;3.13;;
75320;SDS011;68337;52.196;5.660;2023-06-14T02:13:21;5.20;;;2.13;;
75320;SDS011;68337;52.196;5.660;2023-06-14T02:15:47;4.75;;;2.25;;
75320;SDS011;68337;52.196;5.660;2023-06-14T02:18:16;5.30;;;2.95;;
75320;SDS011;68337;52.196;5.660;2023-06-14T02:20:41;5.15;;;2.30;;
75320;SDS011;68337;52.196;5.660;2023-06-14T02:23:07;4.55;;;2.80;;
75320;SDS011;68337;52.196;5.660;2023-06-14T02:25:33;3.08;;;2.00;;
75320;SDS011;68337;52.196;5.660;2023-06-14T02:27:59;3.42;;;2.67;;
75320;SDS011;68337;52.196;5.660;2023-06-14T02:30:25;7.68;;;2.53;;
75320;SDS011;68337;52.196;5.660;2023-06-14T02:32:51;4.80;;;2.28;;
75320;SDS011;68337;52.196;5.660;2023-06-14T02:35:18;3.25;;;2.25;;
75320;SDS011;68337;52.196;5.660;2023-06-14T02:37:45;5.60;;;2.25;;
75320;SDS011;68337;52.196;5.660;2023-06-14T02:40:11;7.10;;;2.38;;
75320;SDS011;68337;52.196;5.660;2023-06-14T02:42:37;6.20;;;2.20;;
75320;SDS011;68337;52.196;5.660;2023-06-14T02:45:03;3.15;;;2.38;;
75320;SDS011;68337;52.196;5.660;2023-06-14T02:47:29;9.23;;;2.88;;
75320;SDS011;68337;52.196;5.660;2023-06-14T02:49:55;4.47;;;2.60;;
75320;SDS011;68337;52.196;5.660;2023-06-14T02:52:21;4.88;;;2.65;;
75320;SDS011;68337;52.196;5.660;2023-06-14T02:54:47;4.10;;;2.42;;
75320;SDS011;68337;52.196;5.660;2023-06-14T02:57:12;8.20;;;2.38;;
75320;SDS011;68337;52.196;5.660;2023-06-14T02:59:38;3.33;;;2.15;;
75320;SDS011;68337;52.196;5.660;2023-06-14T03:02:04;4.88;;;2.88;;
75320;SDS011;68337;52.196;5.660;2023-06-14T03:04:30;4.07;;;2.45;;
75320;SDS011;68337;52.196;5.660;2023-06-14T03:07:02;6.82;;;2.47;;
75320;SDS011;68337;52.196;5.660;2023-06-14T03:09:37;6.07;;;2.35;;
75320;SDS011;68337;52.196;5.660;2023-06-14T03:12:03;6.88;;;2.47;;
75320;SDS011;68337;52.196;5.660;2023-06-14T03:14:32;4.22;;;2.25;;
75320;SDS011;68337;52.196;5.660;2023-06-14T03:16:58;4.65;;;2.83;;
75320;SDS011;68337;52.196;5.660;2023-06-14T03:19:25;4.65;;;2.15;;
75320;SDS011;68337;52.196;5.660;2023-06-14T03:21:51;4.82;;;2.47;;
75320;SDS011;68337;52.196;5.660;2023-06-14T03:24:21;4.13;;;2.38;;
75320;SDS011;68337;52.196;5.660;2023-06-14T03:26:47;7.53;;;2.80;;
75320;SDS011;68337;52.196;5.660;2023-06-14T03:29:12;6.65;;;2.55;;
75320;SDS011;68337;52.196;5.660;2023-06-14T03:31:42;3.53;;;2.33;;
75320;SDS011;68337;52.196;5.660;2023-06-14T03:34:25;6.68;;;2.63;;
75320;SDS011;68337;52.196;5.660;2023-06-14T03:36:51;3.40;;;2.85;;
75320;SDS011;68337;52.196;5.660;2023-06-14T03:39:17;8.50;;;2.75;;
75320;SDS011;68337;52.196;5.660;2023-06-14T03:41:44;6.97;;;2.78;;
75320;SDS011;68337;52.196;5.660;2023-06-14T03:44:10;4.07;;;2.30;;
75320;SDS011;68337;52.196;5.660;2023-06-14T03:46:36;5.57;;;2.70;;
75320;SDS011;68337;52.196;5.660;2023-06-14T03:49:02;8.43;;;3.08;;
75320;SDS011;68337;52.196;5.660;2023-06-14T03:51:28;2.90;;;2.58;;
75320;SDS011;68337;52.196;5.660;2023-06-14T03:53:54;2.97;;;2.40;;
75320;SDS011;68337;52.196;5.660;2023-06-14T03:56:20;5.22;;;2.72;;
75320;SDS011;68337;52.196;5.660;2023-06-14T03:58:46;4.43;;;2.65;;
75320;SDS011;68337;52.196;5.660;2023-06-14T04:01:12;7.45;;;2.65;;
75320;SDS011;68337;52.196;5.660;2023-06-14T04:03:41;6.05;;;2.80;;
75320;SDS011;68337;52.196;5.660;2023-06-14T04:06:07;5.90;;;2.65;;
75320;SDS011;68337;52.196;5.660;2023-06-14T04:08:36;7.78;;;2.42;;
75320;SDS011;68337;52.196;5.660;2023-06-14T04:11:04;6.88;;;2.45;;
75320;SDS011;68337;52.196;5.660;2023-06-14T04:13:30;5.28;;;2.60;;
75320;SDS011;68337;52.196;5.660;2023-06-14T04:15:56;2.65;;;2.45;;
75320;SDS011;68337;52.196;5.660;2023-06-14T04:18:22;3.97;;;2.58;;
75320;SDS011;68337;52.196;5.660;2023-06-14T04:20:48;6.03;;;2.85;;
75320;SDS011;68337;52.196;5.660;2023-06-14T04:23:16;4.63;;;2.20;;
75320;SDS011;68337;52.196;5.660;2023-06-14T04:25:46;5.82;;;2.50;;
75320;SDS011;68337;52.196;5.660;2023-06-14T04:28:14;3.00;;;2.67;;
75320;SDS011;68337;52.196;5.660;2023-06-14T04:30:49;8.02;;;2.88;;
75320;SDS011;68337;52.196;5.660;2023-06-14T04:33:15;6.35;;;2.30;;
75320;SDS011;68337;52.196;5.660;2023-06-14T04:35:42;4.30;;;2.47;;
75320;SDS011;68337;52.196;5.660;2023-06-14T04:38:12;4.40;;;2.60;;
75320;SDS011;68337;52.196;5.660;2023-06-14T04:40:38;7.72;;;2.63;;
75320;SDS011;68337;52.196;5.660;2023-06-14T04:43:11;4.38;;;2.65;;
75320;SDS011;68337;52.196;5.660;2023-06-14T04:45:40;7.15;;;2.60;;
75320;SDS011;68337;52.196;5.660;2023-06-14T04:48:06;4.43;;;2.47;;
75320;SDS011;68337;52.196;5.660;2023-06-14T04:50:32;4.72;;;2.55;;
75320;SDS011;68337;52.196;5.660;2023-06-14T04:52:58;7.43;;;3.17;;
75320;SDS011;68337;52.196;5.660;2023-06-14T04:55:27;7.78;;;3.22;;
75320;SDS011;68337;52.196;5.660;2023-06-14T04:57:53;7.28;;;2.50;;
75320;SDS011;68337;52.196;5.660;2023-06-14T05:00:20;6.80;;;2.47;;
75320;SDS011;68337;52.196;5.660;2023-06-14T05:02:46;6.75;;;3.00;;
75320;SDS011;68337;52.196;5.660;2023-06-14T05:05:16;4.25;;;2.22;;
75320;SDS011;68337;52.196;5.660;2023-06-14T05:07:42;3.47;;;2.80;;
75320;SDS011;68337;52.196;5.660;2023-06-14T05:10:08;4.30;;;2.17;;
75320;SDS011;68337;52.196;5.660;2023-06-14T05:12:34;3.97;;;2.33;;
75320;SDS011;68337;52.196;5.660;2023-06-14T05:15:00;7.00;;;2.72;;
75320;SDS011;68337;52.196;5.660;2023-06-14T05:17:26;3.78;;;2.40;;
75320;SDS011;68337;52.196;5.660;2023-06-14T05:19:53;2.75;;;1.90;;
75320;SDS011;68337;52.196;5.660;2023-06-14T05:22:20;10.65;;;3.05;;
75320;SDS011;68337;52.196;5.660;2023-06-14T05:24:47;5.18;;;2.22;;
75320;SDS011;68337;52.196;5.660;2023-06-14T05:27:13;5.00;;;2.50;;
75320;SDS011;68337;52.196;5.660;2023-06-14T05:29:39;5.38;;;2.60;;
75320;SDS011;68337;52.196;5.660;2023-06-14T05:32:05;4.70;;;2.30;;
75320;SDS011;68337;52.196;5.660;2023-06-14T05:34:31;5.32;;;2.60;;
75320;SDS011;68337;52.196;5.660;2023-06-14T05:36:57;3.58;;;2.30;;
75320;SDS011;68337;52.196;5.660;2023-06-14T05:39:22;4.38;;;2.60;;
75320;SDS011;68337;52.196;5.660;2023-06-14T05:41:51;3.42;;;2.17;;
75320;SDS011;68337;52.196;5.660;2023-06-14T05:44:17;5.82;;;2.28;;
75320;SDS011;68337;52.196;5.660;2023-06-14T05:46:46;6.40;;;2.53;;
75320;SDS011;68337;52.196;5.660;2023-06-14T05:49:11;6.03;;;2.45;;
75320;SDS011;68337;52.196;5.660;2023-06-14T05:51:37;5.03;;;2.10;;
75320;SDS011;68337;52.196;5.660;2023-06-14T05:54:03;5.78;;;2.50;;
75320;SDS011;68337;52.196;5.660;2023-06-14T05:56:28;7.55;;;2.83;;
75320;SDS011;68337;52.196;5.660;2023-06-14T05:58:54;3.45;;;2.30;;
75320;SDS011;68337;52.196;5.660;2023-06-14T06:01:20;4.15;;;2.50;;
75320;SDS011;68337;52.196;5.660;2023-06-14T06:03:46;2.88;;;2.25;;
75320;SDS011;68337;52.196;5.660;2023-06-14T06:06:12;6.22;;;2.50;;
75320;SDS011;68337;52.196;5.660;2023-06-14T06:08:39;4.03;;;2.70;;
75320;SDS011;68337;52.196;5.660;2023-06-14T06:11:05;5.07;;;2.58;;
75320;SDS011;68337;52.196;5.660;2023-06-14T06:13:31;4.00;;;2.60;;
75320;SDS011;68337;52.196;5.660;2023-06-14T06:15:57;4.22;;;2.42;;
75320;SDS011;68337;52.196;5.660;2023-06-14T06:18:23;8.68;;;2.58;;
75320;SDS011;68337;52.196;5.660;2023-06-14T06:20:49;5.00;;;2.25;;
75320;SDS011;68337;52.196;5.660;2023-06-14T06:23:15;6.68;;;2.50;;
75320;SDS011;68337;52.196;5.660;2023-06-14T06:25:40;5.28;;;2.60;;
75320;SDS011;68337;52.196;5.660;2023-06-14T06:28:09;2.47;;;2.28;;
75320;SDS011;68337;52.196;5.660;2023-06-14T06:30:34;6.00;;;2.67;;
75320;SDS011;68337;52.196;5.660;2023-06-14T06:33:01;5.55;;;2.10;;
75320;SDS011;68337;52.196;5.660;2023-06-14T06:35:28;6.15;;;2.53;;
75320;SDS011;68337;52.196;5.660;2023-06-14T06:37:55;6.32;;;2.50;;
75320;SDS011;68337;52.196;5.660;2023-06-14T06:40:21;8.10;;;2.67;;
75320;SDS011;68337;52.196;5.660;2023-06-14T06:42:46;6.55;;;2.42;;
75320;SDS011;68337;52.196;5.660;2023-06-14T06:45:12;8.48;;;2.25;;
75320;SDS011;68337;52.196;5.660;2023-06-14T06:47:38;9.82;;;2.10;;
75320;SDS011;68337;52.196;5.660;2023-06-14T06:50:04;6.55;;;2.33;;
75320;SDS011;68337;52.196;5.660;2023-06-14T06:52:31;6.78;;;2.53;;
75320;SDS011;68337;52.196;5.660;2023-06-14T06:54:57;4.32;;;2.35;;
75320;SDS011;68337;52.196;5.660;2023-06-14T06:57:22;7.20;;;2.30;;
75320;SDS011;68337;52.196;5.660;2023-06-14T06:59:48;5.22;;;2.08;;
75320;SDS011;68337;52.196;5.660;2023-06-14T07:02:15;2.17;;;2.03;;
75320;SDS011;68337;52.196;5.660;2023-06-14T07:04:41;5.97;;;2.63;;
75320;SDS011;68337;52.196;5.660;2023-06-14T07:07:06;5.50;;;2.60;;
75320;SDS011;68337;52.196;5.660;2023-06-14T07:09:34;3.67;;;2.35;;
75320;SDS011;68337;52.196;5.660;2023-06-14T07:12:00;5.15;;;1.88;;
75320;SDS011;68337;52.196;5.660;2023-06-14T07:14:26;5.13;;;2.05;;
75320;SDS011;68337;52.196;5.660;2023-06-14T07:16:52;2.95;;;2.17;;
75320;SDS011;68337;52.196;5.660;2023-06-14T07:19:18;4.78;;;2.10;;
75320;SDS011;68337;52.196;5.660;2023-06-14T07:21:44;2.67;;;1.45;;
75320;SDS011;68337;52.196;5.660;2023-06-14T07:24:10;6.60;;;1.80;;
75320;SDS011;68337;52.196;5.660;2023-06-14T07:26:36;3.10;;;1.90;;
75320;SDS011;68337;52.196;5.660;2023-06-14T07:29:01;6.03;;;1.58;;
75320;SDS011;68337;52.196;5.660;2023-06-14T07:31:27;2.38;;;1.80;;
75320;SDS011;68337;52.196;5.660;2023-06-14T07:33:53;3.28;;;1.67;;
75320;SDS011;68337;52.196;5.660;2023-06-14T07:36:19;3.38;;;1.40;;
75320;SDS011;68337;52.196;5.660;2023-06-14T07:38:45;3.25;;;1.73;;
75320;SDS011;68337;52.196;5.660;2023-06-14T07:41:11;2.65;;;1.40;;
75320;SDS011;68337;52.196;5.660;2023-06-14T07:43:37;5.15;;;1.70;;
75320;SDS011;68337;52.196;5.660;2023-06-14T07:46:04;3.25;;;1.83;;
75320;SDS011;68337;52.196;5.660;2023-06-14T07:48:30;2.22;;;1.50;;
75320;SDS011;68337;52.196;5.660;2023-06-14T07:50:56;5.75;;;1.92;;
75320;SDS011;68337;52.196;5.660;2023-06-14T07:53:22;4.07;;;2.05;;
75320;SDS011;68337;52.196;5.660;2023-06-14T07:55:48;6.15;;;1.50;;
75320;SDS011;68337;52.196;5.660;2023-06-14T07:58:17;3.80;;;1.63;;
75320;SDS011;68337;52.196;5.660;2023-06-14T08:00:43;2.60;;;1.60;;
75320;SDS011;68337;52.196;5.660;2023-06-14T08:03:09;3.60;;;1.10;;
75320;SDS011;68337;52.196;5.660;2023-06-14T08:05:35;5.47;;;1.40;;
75320;SDS011;68337;52.196;5.660;2023-06-14T08:08:00;4.85;;;1.50;;
75320;SDS011;68337;52.196;5.660;2023-06-14T08:10:26;2.97;;;1.40;;
75320;SDS011;68337;52.196;5.660;2023-06-14T08:12:52;1.90;;;1.33;;
75320;SDS011;68337;52.196;5.660;2023-06-14T08:15:18;1.50;;;1.38;;
75320;SDS011;68337;52.196;5.660;2023-06-14T08:17:43;1.38;;;1.27;;
75320;SDS011;68337;52.196;5.660;2023-06-14T08:20:10;4.68;;;1.60;;
75320;SDS011;68337;52.196;5.660;2023-06-14T08:22:36;2.03;;;1.50;;
75320;SDS011;68337;52.196;5.660;2023-06-14T08:25:02;3.50;;;1.20;;
75320;SDS011;68337;52.196;5.660;2023-06-14T08:27:29;5.20;;;1.50;;
75320;SDS011;68337;52.196;5.660;2023-06-14T08:29:55;6.00;;;1.52;;
75320;SDS011;68337;52.196;5.660;2023-06-14T08:32:21;1.33;;;1.23;;
75320;SDS011;68337;52.196;5.660;2023-06-14T08:34:47;1.50;;;1.40;;
75320;SDS011;68337;52.196;5.660;2023-06-14T08:37:13;1.42;;;1.33;;
75320;SDS011;68337;52.196;5.660;2023-06-14T08:39:39;3.70;;;1.38;;
75320;SDS011;68337;52.196;5.660;2023-06-14T08:42:09;1.67;;;1.40;;
75320;SDS011;68337;52.196;5.660;2023-06-14T08:44:35;4.78;;;1.17;;
75320;SDS011;68337;52.196;5.660;2023-06-14T08:47:01;1.50;;;1.40;;
75320;SDS011;68337;52.196;5.660;2023-06-14T08:49:31;4.90;;;1.30;;
75320;SDS011;68337;52.196;5.660;2023-06-14T08:51:57;4.10;;;1.25;;
75320;SDS011;68337;52.196;5.660;2023-06-14T08:54:33;3.38;;;1.35;;
75320;SDS011;68337;52.196;5.660;2023-06-14T08:57:01;1.00;;;1.00;;
75320;SDS011;68337;52.196;5.660;2023-06-14T08:59:29;1.50;;;1.38;;
75320;SDS011;68337;52.196;5.660;2023-06-14T09:01:59;1.48;;;1.30;;
75320;SDS011;68337;52.196;5.660;2023-06-14T09:04:25;3.90;;;1.33;;
75320;SDS011;68337;52.196;5.660;2023-06-14T09:06:54;3.63;;;1.40;;
75320;SDS011;68337;52.196;5.660;2023-06-14T09:09:23;2.58;;;1.33;;
75320;SDS011;68337;52.196;5.660;2023-06-14T09:11:50;3.88;;;1.33;;
75320;SDS011;68337;52.196;5.660;2023-06-14T09:14:19;3.65;;;1.30;;
75320;SDS011;68337;52.196;5.660;2023-06-14T09:16:46;4.05;;;1.50;;
75320;SDS011;68337;52.196;5.660;2023-06-14T09:19:22;3.17;;;1.45;;
75320;SDS011;68337;52.196;5.660;2023-06-14T09:21:49;5.00;;;1.70;;
75320;SDS011;68337;52.196;5.660;2023-06-14T09:24:15;3.20;;;1.50;;
75320;SDS011;68337;52.196;5.660;2023-06-14T09:26:40;1.33;;;1.10;;
75320;SDS011;68337;52.196;5.660;2023-06-14T09:29:06;3.13;;;1.20;;
75320;SDS011;68337;52.196;5.660;2023-06-14T09:31:32;3.05;;;1.27;;
75320;SDS011;68337;52.196;5.660;2023-06-14T09:33:58;1.63;;;1.33;;
75320;SDS011;68337;52.196;5.660;2023-06-14T09:36:26;3.17;;;1.27;;
75320;SDS011;68337;52.196;5.660;2023-06-14T09:38:56;1.33;;;1.20;;
75320;SDS011;68337;52.196;5.660;2023-06-14T09:41:39;1.40;;;1.23;;
75320;SDS011;68337;52.196;5.660;2023-06-14T09:44:08;3.25;;;1.25;;
75320;SDS011;68337;52.196;5.660;2023-06-14T09:46:34;1.60;;;1.20;;
75320;SDS011;68337;52.196;5.660;2023-06-14T09:49:01;1.83;;;1.55;;
75320;SDS011;68337;52.196;5.660;2023-06-14T09:51:28;2.67;;;1.20;;
75320;SDS011;68337;52.196;5.660;2023-06-14T09:54:00;3.03;;;1.23;;
75320;SDS011;68337;52.196;5.660;2023-06-14T09:56:31;5.95;;;1.65;;
75320;SDS011;68337;52.196;5.660;2023-06-14T09:58:59;6.22;;;1.45;;
75320;SDS011;68337;52.196;5.660;2023-06-14T10:01:35;1.95;;;1.02;;
75320;SDS011;68337;52.196;5.660;2023-06-14T10:04:05;3.20;;;1.50;;
75320;SDS011;68337;52.196;5.660;2023-06-14T10:06:32;3.00;;;1.40;;
75320;SDS011;68337;52.196;5.660;2023-06-14T10:09:02;1.55;;;0.98;;
75320;SDS011;68337;52.196;5.660;2023-06-14T10:11:30;5.75;;;1.15;;
75320;SDS011;68337;52.196;5.660;2023-06-14T10:13:57;1.33;;;1.20;;
75320;SDS011;68337;52.196;5.660;2023-06-14T10:16:27;2.67;;;1.50;;
75320;SDS011;68337;52.196;5.660;2023-06-14T10:24:32;2.60;;;1.30;;
75320;SDS011;68337;52.196;5.660;2023-06-14T10:27:01;4.32;;;1.20;;
75320;SDS011;68337;52.196;5.660;2023-06-14T10:29:27;2.60;;;1.35;;
75320;SDS011;68337;52.196;5.660;2023-06-14T10:31:59;1.63;;;1.38;;
75320;SDS011;68337;52.196;5.660;2023-06-14T10:34:29;1.42;;;1.33;;
75320;SDS011;68337;52.196;5.660;2023-06-14T10:37:05;0.95;;;0.95;;
75320;SDS011;68337;52.196;5.660;2023-06-14T10:39:42;3.75;;;1.17;;
75320;SDS011;68337;52.196;5.660;2023-06-14T10:42:12;2.53;;;1.38;;
75320;SDS011;68337;52.196;5.660;2023-06-14T10:47:09;1.40;;;1.30;;
75320;SDS011;68337;52.196;5.660;2023-06-14T10:49:45;1.83;;;1.55;;
75320;SDS011;68337;52.196;5.660;2023-06-14T10:52:16;3.85;;;1.60;;
75320;SDS011;68337;52.196;5.660;2023-06-14T10:55:46;39.97;;;3.55;;
75320;SDS011;68337;52.196;5.660;2023-06-14T10:57:50;3.85;;;1.20;;
75320;SDS011;68337;52.196;5.660;2023-06-14T11:00:21;5.35;;;1.08;;
75320;SDS011;68337;52.196;5.660;2023-06-14T11:05:55;3.35;;;1.27;;
75320;SDS011;68337;52.196;5.660;2023-06-14T11:08:47;5.05;;;1.08;;
75320;SDS011;68337;52.196;5.660;2023-06-14T11:11:25;1.95;;;1.50;;
75320;SDS011;68337;52.196;5.660;2023-06-14T11:13:59;3.17;;;1.73;;
75320;SDS011;68337;52.196;5.660;2023-06-14T11:16:26;1.38;;;1.05;;
75320;SDS011;68337;52.196;5.660;2023-06-14T11:18:53;2.58;;;1.00;;
75320;SDS011;68337;52.196;5.660;2023-06-14T11:21:19;1.40;;;1.30;;
75320;SDS011;68337;52.196;5.660;2023-06-14T11:23:48;5.30;;;1.20;;
75320;SDS011;68337;52.196;5.660;2023-06-14T11:26:28;3.20;;;1.10;;
75320;SDS011;68337;52.196;5.660;2023-06-14T11:28:55;4.03;;;1.50;;
75320;SDS011;68337;52.196;5.660;2023-06-14T11:31:22;4.28;;;1.35;;
75320;SDS011;68337;52.196;5.660;2023-06-14T11:33:53;2.22;;;1.10;;
75320;SDS011;68337;52.196;5.660;2023-06-14T11:36:20;5.00;;;1.20;;
75320;SDS011;68337;52.196;5.660;2023-06-14T11:38:46;1.30;;;1.20;;
75320;SDS011;68337;52.196;5.660;2023-06-14T11:41:12;7.85;;;1.42;;
75320;SDS011;68337;52.196;5.660;2023-06-14T11:43:37;4.20;;;1.30;;
75320;SDS011;68337;52.196;5.660;2023-06-14T11:46:06;5.57;;;1.25;;
75320;SDS011;68337;52.196;5.660;2023-06-14T11:48:40;4.57;;;1.33;;
75320;SDS011;68337;52.196;5.660;2023-06-14T11:51:06;0.95;;;0.80;;
75320;SDS011;68337;52.196;5.660;2023-06-14T11:53:32;4.05;;;1.48;;
75320;SDS011;68337;52.196;5.660;2023-06-14T11:55:59;2.50;;;1.30;;
75320;SDS011;68337;52.196;5.660;2023-06-14T11:58:25;5.53;;;1.95;;
75320;SDS011;68337;52.196;5.660;2023-06-14T12:00:54;2.75;;;1.67;;
75320;SDS011;68337;52.196;5.660;2023-06-14T12:03:23;1.92;;;1.30;;
75320;SDS011;68337;52.196;5.660;2023-06-14T12:06:03;2.47;;;1.23;;
75320;SDS011;68337;52.196;5.660;2023-06-14T12:08:33;6.60;;;1.42;;
75320;SDS011;68337;52.196;5.660;2023-06-14T12:11:12;2.85;;;1.40;;
75320;SDS011;68337;52.196;5.660;2023-06-14T12:13:41;2.65;;;1.33;;
75320;SDS011;68337;52.196;5.660;2023-06-14T12:16:11;1.65;;;1.13;;
75320;SDS011;68337;52.196;5.660;2023-06-14T12:18:38;2.53;;;1.17;;
75320;SDS011;68337;52.196;5.660;2023-06-14T12:21:05;2.10;;;1.17;;
75320;SDS011;68337;52.196;5.660;2023-06-14T12:23:44;2.42;;;1.20;;
75320;SDS011;68337;52.196;5.660;2023-06-14T12:26:12;1.63;;;1.00;;
75320;SDS011;68337;52.196;5.660;2023-06-14T12:28:39;2.75;;;1.25;;
75320;SDS011;68337;52.196;5.660;2023-06-14T12:31:07;6.30;;;1.40;;
75320;SDS011;68337;52.196;5.660;2023-06-14T12:33:33;1.35;;;1.10;;
75320;SDS011;68337;52.196;5.660;2023-06-14T12:35:59;2.10;;;1.20;;
75320;SDS011;68337;52.196;5.660;2023-06-14T12:38:25;1.60;;;1.15;;
75320;SDS011;68337;52.196;5.660;2023-06-14T12:40:50;5.65;;;1.58;;
75320;SDS011;68337;52.196;5.660;2023-06-14T12:43:17;3.95;;;1.23;;
75320;SDS011;68337;52.196;5.660;2023-06-14T12:45:43;16.23;;;2.40;;
75320;SDS011;68337;52.196;5.660;2023-06-14T12:48:09;2.45;;;1.40;;
75320;SDS011;68337;52.196;5.660;2023-06-14T12:50:34;3.00;;;1.42;;
75320;SDS011;68337;52.196;5.660;2023-06-14T12:53:00;3.33;;;1.27;;
75320;SDS011;68337;52.196;5.660;2023-06-14T12:55:26;1.40;;;1.17;;
75320;SDS011;68337;52.196;5.660;2023-06-14T12:57:52;2.33;;;1.52;;
75320;SDS011;68337;52.196;5.660;2023-06-14T13:00:17;3.85;;;1.10;;
75320;SDS011;68337;52.196;5.660;2023-06-14T13:02:44;2.65;;;1.10;;
75320;SDS011;68337;52.196;5.660;2023-06-14T13:05:10;1.30;;;1.13;;
75320;SDS011;68337;52.196;5.660;2023-06-14T13:07:36;4.28;;;1.23;;
75320;SDS011;68337;52.196;5.660;2023-06-14T13:10:01;5.50;;;1.63;;
75320;SDS011;68337;52.196;5.660;2023-06-14T13:12:30;3.53;;;1.20;;
75320;SDS011;68337;52.196;5.660;2023-06-14T13:14:56;2.17;;;1.17;;
75320;SDS011;68337;52.196;5.660;2023-06-14T13:17:22;4.88;;;1.45;;
75320;SDS011;68337;52.196;5.660;2023-06-14T13:19:47;5.95;;;1.40;;
75320;SDS011;68337;52.196;5.660;2023-06-14T13:22:13;1.83;;;1.08;;
75320;SDS011;68337;52.196;5.660;2023-06-14T13:24:39;1.38;;;1.00;;
75320;SDS011;68337;52.196;5.660;2023-06-14T13:27:04;2.15;;;1.27;;
75320;SDS011;68337;52.196;5.660;2023-06-14T13:29:30;3.60;;;1.38;;
75320;SDS011;68337;52.196;5.660;2023-06-14T13:31:57;1.40;;;1.15;;
75320;SDS011;68337;52.196;5.660;2023-06-14T13:34:23;4.78;;;1.20;;
75320;SDS011;68337;52.196;5.660;2023-06-14T13:36:49;4.03;;;1.13;;
75320;SDS011;68337;52.196;5.660;2023-06-14T13:39:15;5.45;;;1.30;;
75320;SDS011;68337;52.196;5.660;2023-06-14T13:41:41;1.40;;;1.10;;
75320;SDS011;68337;52.196;5.660;2023-06-14T13:44:07;1.48;;;1.38;;
75320;SDS011;68337;52.196;5.660;2023-06-14T13:46:33;2.28;;;1.17;;
75320;SDS011;68337;52.196;5.660;2023-06-14T13:48:58;1.60;;;1.00;;
75320;SDS011;68337;52.196;5.660;2023-06-14T13:51:26;0.85;;;0.80;;
75320;SDS011;68337;52.196;5.660;2023-06-14T13:53:52;1.02;;;0.98;;
75320;SDS011;68337;52.196;5.660;2023-06-14T13:56:19;2.35;;;0.90;;
75320;SDS011;68337;52.196;5.660;2023-06-14T13:58:45;2.92;;;1.15;;
75320;SDS011;68337;52.196;5.660;2023-06-14T14:01:10;4.25;;;1.25;;
75320;SDS011;68337;52.196;5.660;2023-06-14T14:03:36;1.42;;;1.00;;
75320;SDS011;68337;52.196;5.660;2023-06-14T14:06:03;1.08;;;0.95;;
75320;SDS011;68337;52.196;5.660;2023-06-14T14:08:30;2.13;;;0.80;;
75320;SDS011;68337;52.196;5.660;2023-06-14T14:10:56;2.22;;;1.10;;
75320;SDS011;68337;52.196;5.660;2023-06-14T14:13:22;2.08;;;1.30;;
75320;SDS011;68337;52.196;5.660;2023-06-14T14:15:48;2.15;;;0.90;;
75320;SDS011;68337;52.196;5.660;2023-06-14T14:18:14;9.05;;;1.65;;
75320;SDS011;68337;52.196;5.660;2023-06-14T14:20:40;2.65;;;1.38;;
75320;SDS011;68337;52.196;5.660;2023-06-14T14:23:06;6.07;;;1.00;;
75320;SDS011;68337;52.196;5.660;2023-06-14T14:25:31;4.82;;;1.00;;
75320;SDS011;68337;52.196;5.660;2023-06-14T14:27:57;3.17;;;1.15;;
75320;SDS011;68337;52.196;5.660;2023-06-14T14:30:23;1.50;;;1.10;;
75320;SDS011;68337;52.196;5.660;2023-06-14T14:32:52;5.03;;;1.13;;
75320;SDS011;68337;52.196;5.660;2023-06-14T14:35:18;2.40;;;0.77;;
75320;SDS011;68337;52.196;5.660;2023-06-14T14:37:44;1.77;;;0.90;;
75320;SDS011;68337;52.196;5.660;2023-06-14T14:40:10;1.25;;;1.08;;
75320;SDS011;68337;52.196;5.660;2023-06-14T14:42:36;3.40;;;1.30;;
75320;SDS011;68337;52.196;5.660;2023-06-14T14:45:14;1.13;;;1.02;;
75320;SDS011;68337;52.196;5.660;2023-06-14T14:47:40;1.10;;;1.00;;
75320;SDS011;68337;52.196;5.660;2023-06-14T14:50:06;6.10;;;1.15;;
75320;SDS011;68337;52.196;5.660;2023-06-14T14:52:35;2.17;;;0.95;;
75320;SDS011;68337;52.196;5.660;2023-06-14T14:55:01;0.80;;;0.80;;
75320;SDS011;68337;52.196;5.660;2023-06-14T14:57:27;5.30;;;1.13;;
75320;SDS011;68337;52.196;5.660;2023-06-14T14:59:53;1.88;;;1.00;;
75320;SDS011;68337;52.196;5.660;2023-06-14T15:02:18;2.90;;;0.80;;
75320;SDS011;68337;52.196;5.660;2023-06-14T15:04:44;2.08;;;0.85;;